Time;durP1;ratioP1;P1;durP2;ratioP2;P2;SDS_P1;SDS_P2;PMS_P1;PMS_P2;Temp;Humidity;BMP_temperature;BMP_pressure;BME280_temperature;BME280_humidity;BME280_pressure;Samples;Min_cycle;Max_cycle;Signal;HPM_P1;HPM_P2
2023/05/08 00:01:51;;;;;;;21.50;15.40;;;14.60;99.90;;;;;;5026837;28;20560;-66
2023/05/08 00:04:19;;;;;;;18.25;15.90;;;14.60;99.90;;;;;;5006613;28;20132;-66
2023/05/08 00:06:45;;;;;;;19.45;16.15;;;14.60;99.90;;;;;;4998806;28;20050;-66
2023/05/08 00:09:11;;;;;;;19.00;15.35;;;14.50;99.90;;;;;;5008846;28;20121;-66
2023/05/08 00:11:37;;;;;;;20.25;16.10;;;14.60;99.90;;;;;;5018341;28;20095;-66
2023/05/08 00:14:02;;;;;;;18.38;15.63;;;14.50;99.90;;;;;;5007900;28;20042;-66
2023/05/08 00:16:28;;;;;;;18.52;16.27;;;14.50;99.90;;;;;;5029496;28;20099;-66
2023/05/08 00:18:54;;;;;;;21.50;16.23;;;14.50;99.90;;;;;;5002155;28;20042;-66
2023/05/08 00:21:19;;;;;;;20.38;15.85;;;14.40;99.90;;;;;;5002222;28;20048;-66
2023/05/08 00:23:45;;;;;;;18.73;15.75;;;14.40;99.90;;;;;;5028255;28;20048;-66
2023/05/08 00:26:11;;;;;;;19.35;16.42;;;14.40;99.90;;;;;;5019680;28;20040;-66
2023/05/08 00:28:36;;;;;;;20.50;17.30;;;14.40;99.90;;;;;;5010037;28;20088;-66
2023/05/08 00:31:02;;;;;;;23.67;17.23;;;14.40;99.90;;;;;;5024801;28;20125;-66
2023/05/08 00:33:27;;;;;;;21.80;16.65;;;14.40;99.90;;;;;;4996221;28;20404;-66
2023/05/08 00:36:00;;;;;;;22.13;17.08;;;14.30;99.90;;;;;;5026777;28;20132;-66
2023/05/08 00:38:26;;;;;;;20.73;16.42;;;14.30;99.90;;;;;;5007360;28;20124;-66
2023/05/08 00:40:51;;;;;;;20.92;16.80;;;14.30;99.90;;;;;;5018642;28;20112;-66
2023/05/08 00:43:18;;;;;;;21.17;16.88;;;14.30;99.90;;;;;;5011967;28;20455;-66
2023/05/08 00:45:44;;;;;;;20.27;16.00;;;14.30;99.90;;;;;;5019066;28;20491;-66
2023/05/08 00:48:10;;;;;;;21.45;16.77;;;14.30;99.90;;;;;;5007677;28;20124;-66
2023/05/08 00:50:36;;;;;;;21.30;16.58;;;14.30;99.90;;;;;;5026742;28;20124;-66
2023/05/08 00:53:03;;;;;;;19.60;17.17;;;14.20;99.90;;;;;;5014019;28;20469;-66
2023/05/08 00:55:29;;;;;;;20.25;16.88;;;14.20;99.90;;;;;;5019357;28;20129;-66
2023/05/08 00:57:55;;;;;;;20.60;16.92;;;14.20;99.90;;;;;;5027679;28;20076;-66
2023/05/08 01:00:21;;;;;;;20.02;16.65;;;14.20;99.90;;;;;;5012114;28;20477;-66
2023/05/08 01:02:47;;;;;;;21.10;16.45;;;14.10;99.90;;;;;;5008877;28;20415;-66
2023/05/08 01:05:13;;;;;;;19.65;16.58;;;14.00;99.90;;;;;;5016021;28;20091;-66
2023/05/08 01:07:39;;;;;;;21.40;17.13;;;14.00;99.90;;;;;;5001950;28;20483;-66
2023/05/08 01:10:05;;;;;;;20.63;16.85;;;14.00;99.90;;;;;;5014353;28;20503;-66
2023/05/08 01:13:05;;;;;;;20.63;18.23;;;14.00;99.90;;;;;;5032554;28;20037;-66
2023/05/08 01:15:39;;;;;;;19.13;16.52;;;13.90;99.90;;;;;;5008477;28;20041;-66
2023/05/08 01:18:26;;;;;;;20.38;17.05;;;13.90;99.90;;;;;;5026403;28;20046;-66
2023/05/08 01:21:02;;;;;;;20.63;16.88;;;13.80;99.90;;;;;;4999774;28;20108;-66
2023/05/08 01:24:15;;;;;;;21.27;17.50;;;13.80;99.90;;;;;;5027079;28;20045;-66
2023/05/08 01:27:08;;;;;;;20.65;17.60;;;13.80;99.90;;;;;;4967629;28;20054;-66
2023/05/08 01:29:36;;;;;;;21.92;18.17;;;13.70;99.90;;;;;;5018027;28;20130;-66
2023/05/08 01:32:23;;;;;;;20.23;17.08;;;13.70;99.90;;;;;;5026831;28;20120;-66
2023/05/08 01:34:49;;;;;;;21.08;17.15;;;13.70;99.90;;;;;;5009169;28;20084;-66
2023/05/08 01:37:20;;;;;;;21.15;17.58;;;13.60;99.90;;;;;;5023932;28;20029;-66
2023/05/08 01:40:01;;;;;;;22.23;18.80;;;13.60;99.90;;;;;;5005293;28;20057;-66
2023/05/08 01:42:43;;;;;;;23.75;18.25;;;13.50;99.90;;;;;;5003924;28;20121;-66
2023/05/08 01:45:27;;;;;;;21.70;17.33;;;13.50;99.90;;;;;;5009370;28;20061;-66
2023/05/08 01:48:09;;;;;;;19.27;16.95;;;13.50;99.90;;;;;;5031514;28;20049;-66
2023/05/08 01:50:59;;;;;;;23.55;18.05;;;13.40;99.90;;;;;;5032034;28;20073;-66
2023/05/08 01:53:29;;;;;;;21.23;17.60;;;13.40;99.90;;;;;;5033146;28;20037;-66
2023/05/08 01:56:02;;;;;;;20.77;17.48;;;13.40;99.90;;;;;;5032831;28;20037;-66
2023/05/08 01:58:29;;;;;;;21.50;17.70;;;13.30;99.90;;;;;;5007302;28;20045;-66
2023/05/08 02:00:56;;;;;;;22.50;18.55;;;13.30;99.90;;;;;;5021927;28;20038;-66
2023/05/08 02:03:23;;;;;;;22.15;17.75;;;13.30;99.90;;;;;;5026723;28;20490;-66
2023/05/08 02:05:50;;;;;;;23.05;18.02;;;13.30;99.90;;;;;;5032807;28;20075;-66
2023/05/08 02:08:20;;;;;;;21.05;17.65;;;13.20;99.90;;;;;;5017157;28;20523;-66
2023/05/08 02:10:49;;;;;;;21.55;17.92;;;13.20;99.90;;;;;;5008947;28;20045;-66
2023/05/08 02:13:18;;;;;;;22.10;18.70;;;13.10;99.90;;;;;;5026557;28;20033;-66
2023/05/08 02:15:48;;;;;;;21.17;17.17;;;13.10;99.90;;;;;;5031240;28;20040;-66
2023/05/08 02:18:15;;;;;;;25.55;18.67;;;13.10;99.90;;;;;;5029873;28;20041;-66
2023/05/08 02:20:41;;;;;;;23.10;18.65;;;13.00;99.90;;;;;;5030520;28;20149;-66
2023/05/08 02:23:07;;;;;;;23.90;18.90;;;13.00;99.90;;;;;;5027606;28;20065;-66
2023/05/08 02:25:35;;;;;;;22.73;18.45;;;13.00;99.90;;;;;;5030225;28;20072;-66
2023/05/08 02:28:01;;;;;;;23.20;18.13;;;13.00;99.90;;;;;;5013020;28;20060;-66
2023/05/08 02:30:28;;;;;;;22.10;18.55;;;13.00;99.90;;;;;;5007252;28;20054;-66
2023/05/08 02:32:55;;;;;;;22.55;18.15;;;12.90;99.90;;;;;;5028830;28;20036;-66
2023/05/08 02:35:23;;;;;;;21.75;17.83;;;12.90;99.90;;;;;;5022502;28;20045;-66
2023/05/08 02:37:53;;;;;;;22.65;17.52;;;12.90;99.90;;;;;;5030084;28;20034;-66
2023/05/08 02:40:21;;;;;;;22.55;18.67;;;12.90;99.90;;;;;;5024305;28;20068;-66
2023/05/08 02:42:46;;;;;;;23.83;17.67;;;12.90;99.90;;;;;;5027521;28;20037;-66
2023/05/08 02:45:13;;;;;;;22.17;17.58;;;12.80;99.90;;;;;;5027114;28;20056;-66
2023/05/08 02:47:46;;;;;;;21.55;18.05;;;12.80;99.90;;;;;;5027494;28;20041;-66
2023/05/08 02:50:25;;;;;;;21.70;17.33;;;12.80;99.90;;;;;;5010070;28;20451;-66
2023/05/08 02:52:59;;;;;;;22.13;17.70;;;12.80;99.90;;;;;;5011102;28;20065;-66
2023/05/08 02:55:38;;;;;;;20.55;17.52;;;12.80;99.90;;;;;;5027628;28;20049;-66
2023/05/08 02:58:07;;;;;;;20.77;17.73;;;12.70;99.90;;;;;;5001704;28;20067;-66
2023/05/08 03:00:41;;;;;;;20.65;17.42;;;12.70;99.90;;;;;;5004668;28;20056;-66
2023/05/08 03:03:20;;;;;;;22.58;17.67;;;12.70;99.90;;;;;;5032244;28;20033;-66
2023/05/08 03:05:51;;;;;;;21.00;17.08;;;12.70;99.90;;;;;;5021961;28;20050;-66
2023/05/08 03:08:28;;;;;;;24.35;17.65;;;12.70;99.90;;;;;;5026857;28;20033;-66
2023/05/08 03:10:57;;;;;;;20.55;17.60;;;12.60;99.90;;;;;;5020901;28;20041;-66
2023/05/08 03:13:27;;;;;;;21.00;16.98;;;12.60;99.90;;;;;;5023079;28;20053;-66
2023/05/08 03:15:59;;;;;;;20.13;16.98;;;12.60;99.90;;;;;;5030747;28;20041;-66
2023/05/08 03:18:55;;;;;;;20.95;16.65;;;12.60;99.90;;;;;;5011351;28;20042;-66
2023/05/08 03:21:25;;;;;;;20.90;17.13;;;12.60;99.90;;;;;;5013439;28;20054;-66
2023/05/08 03:23:55;;;;;;;19.77;16.88;;;12.60;99.90;;;;;;5009909;28;20500;-66
2023/05/08 03:26:21;;;;;;;21.60;17.02;;;12.60;99.90;;;;;;5027941;28;20079;-66
2023/05/08 03:28:51;;;;;;;20.35;16.63;;;12.60;99.90;;;;;;5063651;22;20044;-62
2023/05/08 03:31:20;;;;;;;20.25;16.42;;;12.50;99.90;;;;;;5071497;28;20085;-63
2023/05/08 03:33:46;;;;;;;20.38;17.08;;;12.50;99.90;;;;;;5048638;28;20396;-64
2023/05/08 03:36:13;;;;;;;19.10;16.48;;;12.50;99.90;;;;;;5050707;28;20390;-63
2023/05/08 03:38:39;;;;;;;19.60;16.73;;;12.50;99.90;;;;;;5026848;28;20482;-63
2023/05/08 03:41:06;;;;;;;21.10;16.55;;;12.50;99.90;;;;;;5024904;28;20037;-63
2023/05/08 03:43:32;;;;;;;19.17;15.82;;;12.40;99.90;;;;;;5024474;28;20506;-66
2023/05/08 03:45:58;;;;;;;21.05;16.55;;;12.40;99.90;;;;;;5048674;28;20028;-64
2023/05/08 03:48:26;;;;;;;18.98;15.70;;;12.40;99.90;;;;;;5051628;28;20452;-64
2023/05/08 03:50:52;;;;;;;19.25;15.93;;;12.40;99.90;;;;;;5051294;28;20077;-65
2023/05/08 03:53:18;;;;;;;20.30;16.67;;;12.40;99.90;;;;;;5050645;28;20045;-63
2023/05/08 03:55:44;;;;;;;19.92;16.65;;;12.40;99.90;;;;;;5032790;28;20133;-65
2023/05/08 03:58:15;;;;;;;20.25;16.13;;;12.40;99.90;;;;;;5022660;28;20043;-63
2023/05/08 04:01:00;;;;;;;19.90;16.43;;;12.30;99.90;;;;;;5025910;28;20052;-63
2023/05/08 04:03:40;;;;;;;19.88;16.65;;;12.30;99.90;;;;;;5050756;28;20286;-68
2023/05/08 04:06:25;;;;;;;19.38;16.40;;;12.30;99.90;;;;;;5023054;28;20562;-64
2023/05/08 04:09:25;;;;;;;20.13;16.35;;;12.30;99.90;;;;;;5050414;28;20083;-64
2023/05/08 04:11:56;;;;;;;18.27;15.23;;;12.30;99.90;;;;;;5018290;28;20041;-64
2023/05/08 04:14:27;;;;;;;19.20;16.15;;;12.20;99.90;;;;;;5029031;28;20116;-66
2023/05/08 04:16:59;;;;;;;19.48;16.02;;;12.20;99.90;;;;;;5042692;28;20048;-65
2023/05/08 04:19:34;;;;;;;19.80;15.88;;;12.20;99.90;;;;;;5045026;28;20102;-67
2023/05/08 04:22:05;;;;;;;20.17;16.00;;;12.20;99.90;;;;;;5047754;28;20041;-66
2023/05/08 04:24:35;;;;;;;19.08;15.50;;;12.20;99.90;;;;;;5042386;28;20404;-64
2023/05/08 04:27:02;;;;;;;20.13;15.70;;;12.20;99.90;;;;;;5047089;28;20045;-64
2023/05/08 04:29:32;;;;;;;18.80;15.48;;;12.20;99.90;;;;;;5044484;28;20545;-62
2023/05/08 04:31:59;;;;;;;18.40;15.32;;;12.20;99.90;;;;;;5026682;28;20061;-63
2023/05/08 04:34:25;;;;;;;19.52;15.65;;;12.10;99.90;;;;;;5034718;28;20140;-65
2023/05/08 04:36:50;;;;;;;20.65;15.77;;;12.10;99.90;;;;;;5046396;28;20127;-63
2023/05/08 04:39:17;;;;;;;20.05;15.60;;;12.10;99.90;;;;;;5042600;28;20049;-64
2023/05/08 04:41:42;;;;;;;19.70;15.45;;;12.10;99.90;;;;;;5039273;28;20112;-63
2023/05/08 04:44:08;;;;;;;20.60;14.93;;;12.10;99.90;;;;;;5043793;28;20068;-64
2023/05/08 04:46:33;;;;;;;18.45;14.95;;;12.10;99.90;;;;;;5039963;28;20095;-64
2023/05/08 04:48:59;;;;;;;18.33;15.38;;;12.20;99.90;;;;;;5038116;28;20103;-66
2023/05/08 04:51:25;;;;;;;18.63;15.40;;;12.20;99.90;;;;;;5019511;28;20033;-63
2023/05/08 04:53:50;;;;;;;19.23;15.40;;;12.20;99.90;;;;;;5038348;28;20029;-63
2023/05/08 04:56:16;;;;;;;19.88;15.30;;;12.10;99.90;;;;;;5030678;28;20045;-64
2023/05/08 04:58:42;;;;;;;19.83;15.48;;;12.20;99.90;;;;;;5031591;28;20041;-64
2023/05/08 05:01:07;;;;;;;18.13;14.60;;;12.10;99.90;;;;;;5028800;28;20041;-69
2023/05/08 05:03:33;;;;;;;18.23;15.02;;;12.20;99.90;;;;;;5042841;28;20037;-65
2023/05/08 05:05:59;;;;;;;18.85;15.38;;;12.10;99.90;;;;;;5030718;28;20037;-63
2023/05/08 05:08:25;;;;;;;21.15;15.90;;;12.10;99.90;;;;;;5042843;28;20037;-68
2023/05/08 05:10:51;;;;;;;19.50;14.85;;;12.20;99.90;;;;;;5044226;28;20052;-64
2023/05/08 05:13:17;;;;;;;17.55;14.60;;;12.10;99.90;;;;;;5030966;28;20399;-63
2023/05/08 05:15:42;;;;;;;18.50;15.20;;;12.20;99.90;;;;;;5028848;28;20032;-64
2023/05/08 05:18:08;;;;;;;18.58;14.85;;;12.20;99.90;;;;;;5033804;28;20033;-70
2023/05/08 05:20:33;;;;;;;20.90;15.63;;;12.20;99.90;;;;;;5047564;28;20117;-64
2023/05/08 05:22:59;;;;;;;23.45;15.23;;;12.20;99.90;;;;;;5044126;28;20116;-63
2023/05/08 05:25:25;;;;;;;19.65;15.63;;;12.20;99.90;;;;;;5053478;28;20482;-64
2023/05/08 05:27:50;;;;;;;18.45;14.65;;;12.20;99.90;;;;;;5053665;28;20447;-64
2023/05/08 05:30:16;;;;;;;19.30;15.27;;;12.20;99.90;;;;;;5030470;28;20131;-64
2023/05/08 05:32:42;;;;;;;18.23;14.60;;;12.20;99.90;;;;;;5033652;28;20297;-64
2023/05/08 05:35:08;;;;;;;18.48;14.63;;;12.20;99.90;;;;;;5029564;28;20475;-64
2023/05/08 05:37:34;;;;;;;18.02;14.80;;;12.30;99.90;;;;;;5050465;28;20046;-65
2023/05/08 05:40:00;;;;;;;17.30;14.68;;;12.20;99.90;;;;;;5033661;28;20475;-63
2023/05/08 05:42:25;;;;;;;17.77;14.65;;;12.30;99.90;;;;;;5047084;28;20045;-63
2023/05/08 05:44:51;;;;;;;18.52;14.48;;;12.30;99.90;;;;;;5037993;28;20040;-65
2023/05/08 05:47:17;;;;;;;19.52;15.60;;;12.30;99.90;;;;;;5053012;28;20041;-68
2023/05/08 05:49:45;;;;;;;19.35;14.88;;;12.30;99.90;;;;;;5050497;28;20025;-64
2023/05/08 05:52:11;;;;;;;19.00;14.30;;;12.30;99.90;;;;;;5031870;28;20056;-68
2023/05/08 05:54:37;;;;;;;18.10;14.27;;;12.40;99.90;;;;;;5032895;28;20040;-66
2023/05/08 05:57:03;;;;;;;15.88;13.63;;;12.40;99.90;;;;;;5053228;28;20415;-64
2023/05/08 05:59:29;;;;;;;18.17;14.65;;;12.40;99.90;;;;;;5053249;28;20180;-63
2023/05/08 06:01:55;;;;;;;18.25;15.10;;;12.50;99.90;;;;;;5038597;28;20103;-64
2023/05/08 06:04:20;;;;;;;16.25;14.02;;;12.50;99.90;;;;;;5039949;28;20037;-64
2023/05/08 06:06:46;;;;;;;17.15;14.13;;;12.50;99.90;;;;;;5032430;28;20124;-64
2023/05/08 06:09:12;;;;;;;18.92;14.35;;;12.60;99.90;;;;;;5036292;28;20037;-68
2023/05/08 06:11:37;;;;;;;17.85;13.60;;;12.70;99.90;;;;;;5033223;28;20100;-66
2023/05/08 06:14:03;;;;;;;17.35;14.32;;;12.80;99.90;;;;;;5035493;28;20061;-64
2023/05/08 06:16:29;;;;;;;16.10;13.60;;;12.90;99.90;;;;;;5041721;28;20052;-65
2023/05/08 06:18:55;;;;;;;16.60;13.82;;;12.90;99.90;;;;;;5035232;28;20391;-64
2023/05/08 06:21:20;;;;;;;16.67;13.73;;;13.00;99.90;;;;;;5033226;28;20045;-64
2023/05/08 06:23:46;;;;;;;17.33;13.80;;;13.00;99.90;;;;;;5051500;28;20410;-65
2023/05/08 06:26:12;;;;;;;18.15;13.77;;;13.10;99.90;;;;;;5052617;28;20048;-66
2023/05/08 06:28:37;;;;;;;17.10;14.05;;;13.10;99.90;;;;;;5051134;28;20041;-64
2023/05/08 06:31:03;;;;;;;16.95;13.27;;;13.20;99.90;;;;;;5035094;28;20029;-64
2023/05/08 06:33:32;;;;;;;17.52;14.32;;;13.20;99.90;;;;;;5047829;28;20073;-63
2023/05/08 06:35:57;;;;;;;18.00;14.13;;;13.20;99.90;;;;;;5033948;28;20037;-64
2023/05/08 06:38:23;;;;;;;17.55;14.10;;;13.20;99.90;;;;;;5028936;28;20407;-64
2023/05/08 06:40:49;;;;;;;17.27;13.85;;;13.30;99.90;;;;;;5051176;28;20037;-67
2023/05/08 06:43:15;;;;;;;15.63;13.30;;;13.20;99.90;;;;;;5052172;28;20036;-65
2023/05/08 06:45:43;;;;;;;16.73;14.25;;;13.30;99.90;;;;;;5051676;28;20037;-67
2023/05/08 06:48:08;;;;;;;17.60;14.15;;;13.30;99.90;;;;;;5047142;28;20107;-63
2023/05/08 06:50:37;;;;;;;20.98;14.90;;;13.40;99.90;;;;;;5051032;28;20636;-64
2023/05/08 06:53:02;;;;;;;17.05;14.93;;;13.40;99.90;;;;;;5032244;28;20116;-64
2023/05/08 06:55:28;;;;;;;17.75;14.52;;;13.50;99.90;;;;;;5032943;28;20613;-64
2023/05/08 06:57:53;;;;;;;20.05;13.90;;;13.50;99.90;;;;;;5050756;28;20041;-64
2023/05/08 07:00:19;;;;;;;16.92;14.18;;;13.60;99.90;;;;;;5033940;28;20037;-69
2023/05/08 07:02:44;;;;;;;16.65;14.27;;;13.70;99.90;;;;;;5041109;28;20119;-64
2023/05/08 07:05:10;;;;;;;15.63;13.93;;;13.70;99.90;;;;;;5049632;28;20064;-64
2023/05/08 07:07:36;;;;;;;16.00;13.85;;;13.80;99.90;;;;;;5021773;28;20044;-64
2023/05/08 07:10:02;;;;;;;16.55;13.93;;;14.00;99.90;;;;;;5047061;28;20025;-68
2023/05/08 07:12:27;;;;;;;16.55;14.02;;;14.10;99.90;;;;;;5043318;28;20044;-68
2023/05/08 07:14:53;;;;;;;17.08;14.40;;;14.20;99.90;;;;;;5044794;28;20450;-64
2023/05/08 07:17:18;;;;;;;18.38;13.43;;;14.30;99.90;;;;;;5050448;28;20036;-64
2023/05/08 07:19:48;;;;;;;15.50;13.30;;;14.40;99.90;;;;;;5031799;28;20044;-66
2023/05/08 07:22:14;;;;;;;16.10;13.52;;;14.50;99.90;;;;;;5049515;28;20041;-65
2023/05/08 07:24:39;;;;;;;15.00;13.40;;;14.50;99.90;;;;;;5050660;28;20513;-64
2023/05/08 07:27:05;;;;;;;16.83;13.18;;;14.70;99.90;;;;;;5050828;28;20487;-64
2023/05/08 07:29:30;;;;;;;17.05;13.30;;;14.80;99.90;;;;;;5045769;28;20112;-64
2023/05/08 07:31:56;;;;;;;17.40;12.27;;;15.10;99.90;;;;;;5051198;28;20040;-66
2023/05/08 07:34:22;;;;;;;18.92;14.43;;;15.50;99.90;;;;;;5049371;28;20503;-64
2023/05/08 07:36:47;;;;;;;14.23;12.70;;;15.30;99.90;;;;;;5023017;28;20415;-64
2023/05/08 07:39:13;;;;;;;14.88;12.98;;;15.30;99.90;;;;;;5032875;28;20048;-64
2023/05/08 07:41:39;;;;;;;15.50;12.95;;;15.40;99.90;;;;;;5033261;28;20056;-65
2023/05/08 07:44:05;;;;;;;14.27;12.25;;;15.50;99.90;;;;;;5051285;28;20037;-63
2023/05/08 07:46:30;;;;;;;13.95;12.30;;;15.60;99.90;;;;;;5032991;28;20506;-66
2023/05/08 07:48:56;;;;;;;17.05;13.38;;;15.70;99.90;;;;;;5045556;28;20099;-64
2023/05/08 07:51:22;;;;;;;14.85;13.20;;;15.80;99.90;;;;;;5051330;28;20045;-64
2023/05/08 07:53:49;;;;;;;16.02;13.20;;;15.80;99.90;;;;;;5038169;28;20040;-64
2023/05/08 07:56:15;;;;;;;15.48;12.68;;;15.90;99.90;;;;;;5044336;28;20038;-65
2023/05/08 07:58:41;;;;;;;16.10;12.68;;;16.00;99.90;;;;;;5039996;28;20509;-69
2023/05/08 08:01:07;;;;;;;15.48;12.35;;;16.10;99.90;;;;;;5048786;28;20114;-64
2023/05/08 08:03:32;;;;;;;15.70;14.10;;;16.10;99.90;;;;;;5029397;28;20130;-67
2023/05/08 08:05:58;;;;;;;16.13;13.65;;;16.20;99.90;;;;;;5045970;28;20029;-64
2023/05/08 08:08:24;;;;;;;19.00;14.10;;;16.30;99.90;;;;;;5032814;28;20495;-66
2023/05/08 08:10:49;;;;;;;14.57;13.02;;;16.30;99.90;;;;;;5050479;28;20108;-65
2023/05/08 08:13:16;;;;;;;15.77;13.38;;;16.40;99.90;;;;;;5042793;28;20061;-65
2023/05/08 08:15:41;;;;;;;15.85;13.50;;;16.50;99.90;;;;;;5031827;28;20223;-65
2023/05/08 08:18:07;;;;;;;15.10;13.50;;;16.50;99.90;;;;;;5042535;28;20134;-65
2023/05/08 08:20:32;;;;;;;13.93;12.40;;;16.60;99.90;;;;;;5047231;28;20045;-65
2023/05/08 08:22:58;;;;;;;16.58;13.38;;;16.60;99.90;;;;;;5032715;28;20036;-65
2023/05/08 08:25:24;;;;;;;17.08;13.32;;;16.70;99.90;;;;;;5046811;28;20110;-65
2023/05/08 08:27:50;;;;;;;15.40;13.60;;;16.70;99.90;;;;;;5047104;28;20044;-63
2023/05/08 08:30:15;;;;;;;16.98;14.55;;;16.70;99.90;;;;;;5030998;28;20057;-66
2023/05/08 08:32:41;;;;;;;16.55;13.45;;;16.70;99.90;;;;;;5050119;28;20434;-65
2023/05/08 08:35:07;;;;;;;17.48;14.65;;;16.70;99.90;;;;;;5050338;28;20041;-65
2023/05/08 08:37:33;;;;;;;18.58;14.05;;;16.70;99.90;;;;;;5049526;28;20044;-65
2023/05/08 08:39:59;;;;;;;20.23;15.80;;;16.70;99.90;;;;;;5033699;28;20048;-64
2023/05/08 08:42:24;;;;;;;16.17;14.35;;;16.70;99.90;;;;;;5027824;28;20045;-65
2023/05/08 08:44:50;;;;;;;16.92;13.85;;;16.70;99.90;;;;;;5043656;28;20037;-65
2023/05/08 08:47:17;;;;;;;15.85;14.15;;;16.80;99.90;;;;;;5044133;28;20045;-65
2023/05/08 08:49:48;;;;;;;17.60;13.82;;;16.80;99.90;;;;;;5031470;28;20369;-65
2023/05/08 08:52:35;;;;;;;15.98;13.45;;;16.90;99.90;;;;;;5047540;28;20037;-65
2023/05/08 08:55:04;;;;;;;16.83;14.88;;;17.00;99.90;;;;;;5032068;28;20049;-65
2023/05/08 08:57:35;;;;;;;17.42;14.20;;;17.10;99.90;;;;;;5049700;28;20037;-66
2023/05/08 09:00:04;;;;;;;33.40;14.73;;;17.20;99.90;;;;;;5030451;28;20487;-64
2023/05/08 09:02:30;;;;;;;17.30;14.90;;;17.30;99.90;;;;;;5039382;28;20048;-65
2023/05/08 09:04:57;;;;;;;17.55;15.10;;;17.40;99.90;;;;;;5033670;28;20033;-65
2023/05/08 09:07:23;;;;;;;15.70;13.95;;;17.60;99.90;;;;;;5027574;28;20518;-65
2023/05/08 09:09:49;;;;;;;17.67;15.77;;;17.70;99.90;;;;;;5031711;28;20379;-65
2023/05/08 09:12:15;;;;;;;17.45;15.60;;;17.80;99.90;;;;;;5049626;28;20036;-64
2023/05/08 09:14:41;;;;;;;15.88;14.25;;;17.80;99.90;;;;;;5047860;28;20124;-65
2023/05/08 09:17:07;;;;;;;15.88;14.00;;;17.90;99.90;;;;;;5048791;28;20513;-66
2023/05/08 09:19:34;;;;;;;16.55;14.60;;;18.20;99.90;;;;;;5050113;28;20383;-65
2023/05/08 09:22:00;;;;;;;17.60;15.75;;;18.30;99.90;;;;;;5048741;28;20029;-64
2023/05/08 09:24:45;;;;;;;18.38;16.48;;;18.30;99.90;;;;;;5027586;28;20029;-65
2023/05/08 09:27:22;;;;;;;17.75;15.13;;;18.30;99.90;;;;;;5031475;28;20052;-66
2023/05/08 09:30:11;;;;;;;17.10;15.32;;;18.20;99.90;;;;;;5040462;28;20212;-65
2023/05/08 09:32:38;;;;;;;17.38;15.38;;;18.30;99.90;;;;;;5033439;28;20087;-65
2023/05/08 09:35:06;;;;;;;15.85;14.15;;;18.40;99.90;;;;;;5039457;28;20079;-63
2023/05/08 09:37:36;;;;;;;16.88;14.70;;;18.50;99.90;;;;;;5020151;28;20079;-65
2023/05/08 09:40:13;;;;;;;17.15;15.35;;;18.70;99.90;;;;;;5021520;28;20053;-63
2023/05/08 09:42:39;;;;;;;17.17;15.48;;;19.00;99.90;;;;;;5034877;28;20080;-65
2023/05/08 09:45:05;;;;;;;18.25;16.35;;;19.20;99.90;;;;;;5041357;28;20240;-64
2023/05/08 09:47:31;;;;;;;17.50;15.70;;;19.40;99.90;;;;;;5030342;28;20045;-65
2023/05/08 09:50:02;;;;;;;16.17;14.40;;;19.70;99.90;;;;;;5035917;28;20045;-64
2023/05/08 09:52:29;;;;;;;17.27;15.40;;;19.90;99.90;;;;;;5020274;28;20390;-63
2023/05/08 09:55:07;;;;;;;16.65;14.95;;;20.10;99.90;;;;;;5026031;28;20100;-65
2023/05/08 09:57:38;;;;;;;16.33;14.60;;;20.10;99.90;;;;;;5026840;28;20336;-63
2023/05/08 10:00:07;;;;;;;17.50;15.55;;;20.00;99.90;;;;;;5022084;28;20041;-65
2023/05/08 10:02:34;;;;;;;16.10;14.40;;;19.90;99.90;;;;;;5015532;28;20045;-65
2023/05/08 10:05:00;;;;;;;17.30;15.50;;;19.70;99.90;;;;;;5038593;28;20091;-65
2023/05/08 10:07:31;;;;;;;16.23;14.55;;;19.70;99.90;;;;;;5027554;28;20044;-64
2023/05/08 10:09:59;;;;;;;17.25;15.30;;;19.60;99.90;;;;;;5046145;28;20033;-65
2023/05/08 10:12:25;;;;;;;17.83;15.73;;;19.60;99.90;;;;;;5040728;28;20029;-66
2023/05/08 10:14:51;;;;;;;18.48;16.35;;;19.60;99.90;;;;;;5040238;28;20283;-64
2023/05/08 10:17:23;;;;;;;17.10;15.40;;;19.60;99.90;;;;;;5045673;28;20543;-63
2023/05/08 10:19:53;;;;;;;17.08;15.27;;;19.60;99.90;;;;;;5029879;28;20052;-63
2023/05/08 10:22:21;;;;;;;18.08;16.17;;;19.50;99.90;;;;;;5022575;28;20203;-66
2023/05/08 10:24:51;;;;;;;17.58;15.77;;;19.50;99.90;;;;;;5044083;28;20600;-65
2023/05/08 10:27:26;;;;;;;17.27;15.48;;;19.60;99.90;;;;;;5023180;28;20081;-65
2023/05/08 10:29:55;;;;;;;18.40;16.17;;;19.60;99.90;;;;;;5043212;28;20495;-66
2023/05/08 10:32:22;;;;;;;17.65;15.82;;;19.70;99.90;;;;;;5024137;28;20484;-65
2023/05/08 10:35:02;;;;;;;17.27;15.40;;;19.70;99.90;;;;;;5017298;28;20037;-64
2023/05/08 10:37:29;;;;;;;16.95;14.07;;;19.70;99.90;;;;;;5041631;28;20041;-65
2023/05/08 10:39:56;;;;;;;17.95;15.45;;;19.80;99.90;;;;;;5041096;28;20041;-62
2023/05/08 10:42:23;;;;;;;18.23;16.10;;;19.90;99.90;;;;;;5025838;28;20061;-63
2023/05/08 10:44:48;;;;;;;17.85;15.95;;;20.00;99.90;;;;;;5033350;28;20049;-65
2023/05/08 10:47:21;;;;;;;16.88;15.18;;;20.00;99.90;;;;;;5041681;28;20033;-64
2023/05/08 10:50:19;;;;;;;17.95;16.02;;;20.10;99.90;;;;;;5045282;28;20037;-64
2023/05/08 10:53:22;;;;;;;19.08;16.17;;;20.10;99.90;;;;;;5033200;28;20381;-63
2023/05/08 10:55:50;;;;;;;16.63;14.93;;;20.20;99.90;;;;;;5030843;28;20331;-65
2023/05/08 10:58:29;;;;;;;16.88;14.82;;;20.20;99.90;;;;;;5036806;28;20060;-65
2023/05/08 11:01:04;;;;;;;17.10;15.30;;;20.40;99.90;;;;;;5046752;28;20471;-66
2023/05/08 11:03:31;;;;;;;17.98;16.08;;;20.40;99.90;;;;;;5038854;28;20049;-65
2023/05/08 11:05:59;;;;;;;17.92;15.85;;;20.50;99.90;;;;;;5041863;28;20422;-64
2023/05/08 11:08:26;;;;;;;16.65;14.85;;;20.60;99.90;;;;;;5039988;28;20498;-66
2023/05/08 11:11:01;;;;;;;18.65;15.05;;;20.80;99.90;;;;;;5026564;28;20041;-66
2023/05/08 11:13:37;;;;;;;21.85;16.65;;;21.00;99.90;;;;;;5022067;28;20376;-65
2023/05/08 11:16:08;;;;;;;18.92;15.93;;;21.00;99.90;;;;;;5017658;28;20076;-65
2023/05/08 11:18:34;;;;;;;17.42;15.43;;;21.10;99.90;;;;;;5017552;28;20049;-63
2023/05/08 11:21:05;;;;;;;18.08;16.23;;;21.10;99.90;;;;;;5047830;28;20364;-65
2023/05/08 11:23:35;;;;;;;17.25;15.30;;;21.10;99.90;;;;;;5047031;28;20600;-65
2023/05/08 11:26:12;;;;;;;17.63;15.80;;;21.20;99.90;;;;;;5039550;28;20025;-65
2023/05/08 11:28:39;;;;;;;15.93;14.13;;;21.20;99.90;;;;;;5043821;28;20111;-65
2023/05/08 11:31:07;;;;;;;18.48;15.93;;;21.20;99.90;;;;;;5033809;28;20047;-66
2023/05/08 11:33:36;;;;;;;18.73;16.73;;;21.20;99.90;;;;;;5040328;28;20508;-64
2023/05/08 11:36:21;;;;;;;18.35;16.48;;;21.20;99.90;;;;;;5043249;28;20032;-64
2023/05/08 11:39:07;;;;;;;18.52;16.52;;;21.20;99.90;;;;;;5031359;28;20049;-66
2023/05/08 11:41:33;;;;;;;19.40;17.30;;;21.30;99.90;;;;;;5027974;28;20041;-64
2023/05/08 11:44:07;;;;;;;16.73;14.88;;;21.40;99.90;;;;;;5041307;28;20048;-65
2023/05/08 11:46:39;;;;;;;19.33;16.00;;;21.50;99.90;;;;;;5020114;28;20072;-65
2023/05/08 11:49:09;;;;;;;17.38;15.57;;;21.60;99.90;;;;;;5037684;28;20618;-66
2023/05/08 11:51:35;;;;;;;19.88;17.45;;;21.70;99.90;;;;;;5027765;28;20111;-65
2023/05/08 11:54:01;;;;;;;18.15;16.30;;;21.80;99.90;;;;;;5032235;28;20076;-65
2023/05/08 11:56:27;;;;;;;19.33;17.33;;;21.80;99.90;;;;;;5063979;22;20084;-64
2023/05/08 11:59:07;;;;;;;18.63;16.67;;;21.80;99.90;;;;;;5044011;28;20047;-64
2023/05/08 12:01:33;;;;;;;17.08;15.30;;;21.90;99.90;;;;;;5039463;28;20372;-64
2023/05/08 12:04:00;;;;;;;17.88;15.98;;;21.90;99.90;;;;;;5044101;28;20136;-64
2023/05/08 12:06:26;;;;;;;16.58;14.85;;;21.90;99.90;;;;;;5022717;28;20076;-64
2023/05/08 12:08:52;;;;;;;17.60;14.77;;;22.00;99.90;;;;;;5044330;28;20036;-64
2023/05/08 12:11:23;;;;;;;15.25;13.68;;;22.00;99.90;;;;;;5040332;28;20078;-64
2023/05/08 12:13:50;;;;;;;17.75;15.88;;;22.20;99.90;;;;;;5030483;28;20482;-64
2023/05/08 12:16:16;;;;;;;18.50;16.60;;;22.30;99.90;;;;;;5047145;28;20045;-64
2023/05/08 12:18:42;;;;;;;18.75;16.10;;;22.40;99.90;;;;;;5050401;28;20029;-64
2023/05/08 12:21:10;;;;;;;18.58;15.55;;;22.50;99.90;;;;;;5028579;28;20051;-64
2023/05/08 12:23:36;;;;;;;18.70;15.70;;;22.50;99.90;;;;;;5042067;28;20515;-64
2023/05/08 12:26:03;;;;;;;18.38;16.35;;;22.60;99.90;;;;;;5048805;28;20068;-64
2023/05/08 12:28:31;;;;;;;17.88;15.98;;;22.60;99.90;;;;;;5031974;28;20045;-64
2023/05/08 12:30:57;;;;;;;19.63;15.65;;;22.70;99.90;;;;;;5038786;28;20077;-64
2023/05/08 12:33:23;;;;;;;16.02;14.38;;;22.70;99.90;;;;;;5040983;28;20049;-64
2023/05/08 12:35:49;;;;;;;13.32;11.88;;;23.00;99.90;;;;;;5038260;28;20495;-64
2023/05/08 12:38:15;;;;;;;14.00;12.13;;;23.30;99.90;;;;;;5024492;28;20056;-64